sensor_id;sensor_type;location;lat;lon;timestamp;P1;durP1;ratioP1;P2;durP2;ratioP2
79371;SDS011;68914;51.262;6.802;2023-04-24T00:00:32;3.38;;;1.10;;
79371;SDS011;68914;51.262;6.802;2023-04-24T00:01:33;4.82;;;1.10;;
79371;SDS011;68914;51.262;6.802;2023-04-24T00:02:34;3.50;;;1.10;;
79371;SDS011;68914;51.262;6.802;2023-04-24T00:03:37;4.15;;;1.10;;
79371;SDS011;68914;51.262;6.802;2023-04-24T00:04:39;3.75;;;1.17;;
79371;SDS011;68914;51.262;6.802;2023-04-24T00:05:44;4.25;;;1.20;;
79371;SDS011;68914;51.262;6.802;2023-04-24T00:06:45;4.32;;;1.20;;
79371;SDS011;68914;51.262;6.802;2023-04-24T00:07:49;4.90;;;1.23;;
79371;SDS011;68914;51.262;6.802;2023-04-24T00:08:52;3.90;;;1.30;;
79371;SDS011;68914;51.262;6.802;2023-04-24T00:09:53;4.37;;;1.30;;
79371;SDS011;68914;51.262;6.802;2023-04-24T00:10:54;4.53;;;1.40;;
79371;SDS011;68914;51.262;6.802;2023-04-24T00:11:55;4.70;;;1.33;;
79371;SDS011;68914;51.262;6.802;2023-04-24T00:12:56;4.40;;;1.27;;
79371;SDS011;68914;51.262;6.802;2023-04-24T00:13:57;4.37;;;1.30;;
79371;SDS011;68914;51.262;6.802;2023-04-24T00:14:57;4.28;;;1.30;;
79371;SDS011;68914;51.262;6.802;2023-04-24T00:15:58;5.13;;;1.30;;
79371;SDS011;68914;51.262;6.802;2023-04-24T00:16:58;4.38;;;1.38;;
79371;SDS011;68914;51.262;6.802;2023-04-24T00:17:59;4.77;;;1.20;;
79371;SDS011;68914;51.262;6.802;2023-04-24T00:19:01;4.72;;;1.38;;
79371;SDS011;68914;51.262;6.802;2023-04-24T00:20:02;4.50;;;1.33;;
79371;SDS011;68914;51.262;6.802;2023-04-24T00:21:04;4.75;;;1.40;;
79371;SDS011;68914;51.262;6.802;2023-04-24T00:22:05;4.30;;;1.50;;
79371;SDS011;68914;51.262;6.802;2023-04-24T00:23:06;4.22;;;1.20;;
79371;SDS011;68914;51.262;6.802;2023-04-24T00:24:07;5.50;;;1.70;;
79371;SDS011;68914;51.262;6.802;2023-04-24T00:25:09;4.57;;;1.40;;
79371;SDS011;68914;51.262;6.802;2023-04-24T00:26:09;4.05;;;1.48;;
79371;SDS011;68914;51.262;6.802;2023-04-24T00:27:10;4.97;;;1.50;;
79371;SDS011;68914;51.262;6.802;2023-04-24T00:28:11;4.20;;;1.40;;
79371;SDS011;68914;51.262;6.802;2023-04-24T00:29:11;4.07;;;1.40;;
79371;SDS011;68914;51.262;6.802;2023-04-24T00:30:12;4.30;;;1.50;;
79371;SDS011;68914;51.262;6.802;2023-04-24T00:31:13;4.22;;;1.33;;
79371;SDS011;68914;51.262;6.802;2023-04-24T00:32:14;4.18;;;1.30;;
79371;SDS011;68914;51.262;6.802;2023-04-24T00:33:15;5.03;;;1.60;;
79371;SDS011;68914;51.262;6.802;2023-04-24T00:34:16;4.63;;;1.53;;
79371;SDS011;68914;51.262;6.802;2023-04-24T00:35:16;4.82;;;1.70;;
79371;SDS011;68914;51.262;6.802;2023-04-24T00:36:17;6.07;;;1.40;;
79371;SDS011;68914;51.262;6.802;2023-04-24T00:37:19;4.97;;;1.70;;
79371;SDS011;68914;51.262;6.802;2023-04-24T00:38:20;4.60;;;1.80;;
79371;SDS011;68914;51.262;6.802;2023-04-24T00:39:22;4.80;;;1.70;;
79371;SDS011;68914;51.262;6.802;2023-04-24T00:40:23;5.78;;;1.80;;
79371;SDS011;68914;51.262;6.802;2023-04-24T00:41:26;4.43;;;1.60;;
79371;SDS011;68914;51.262;6.802;2023-04-24T00:42:27;5.53;;;1.73;;
79371;SDS011;68914;51.262;6.802;2023-04-24T00:43:28;4.93;;;1.80;;
79371;SDS011;68914;51.262;6.802;2023-04-24T00:44:29;5.67;;;1.93;;
79371;SDS011;68914;51.262;6.802;2023-04-24T00:45:30;4.72;;;1.75;;
79371;SDS011;68914;51.262;6.802;2023-04-24T00:46:31;5.80;;;1.90;;
79371;SDS011;68914;51.262;6.802;2023-04-24T00:47:33;4.93;;;1.75;;
79371;SDS011;68914;51.262;6.802;2023-04-24T00:48:34;5.60;;;1.77;;
79371;SDS011;68914;51.262;6.802;2023-04-24T00:49:35;4.40;;;1.53;;
79371;SDS011;68914;51.262;6.802;2023-04-24T00:50:35;5.20;;;1.70;;
79371;SDS011;68914;51.262;6.802;2023-04-24T00:51:36;4.28;;;1.50;;
79371;SDS011;68914;51.262;6.802;2023-04-24T00:52:37;4.63;;;1.50;;
79371;SDS011;68914;51.262;6.802;2023-04-24T00:53:40;5.33;;;1.60;;
79371;SDS011;68914;51.262;6.802;2023-04-24T00:54:41;4.55;;;1.75;;
79371;SDS011;68914;51.262;6.802;2023-04-24T00:55:42;5.83;;;1.80;;
79371;SDS011;68914;51.262;6.802;2023-04-24T00:56:43;5.18;;;1.73;;
79371;SDS011;68914;51.262;6.802;2023-04-24T00:57:44;4.60;;;1.80;;
79371;SDS011;68914;51.262;6.802;2023-04-24T00:58:45;5.03;;;1.65;;
79371;SDS011;68914;51.262;6.802;2023-04-24T00:59:47;5.15;;;1.67;;
79371;SDS011;68914;51.262;6.802;2023-04-24T01:00:48;5.10;;;1.80;;
79371;SDS011;68914;51.262;6.802;2023-04-24T01:01:50;5.63;;;1.60;;
79371;SDS011;68914;51.262;6.802;2023-04-24T01:02:51;4.95;;;1.75;;
79371;SDS011;68914;51.262;6.802;2023-04-24T01:03:53;6.15;;;2.15;;
79371;SDS011;68914;51.262;6.802;2023-04-24T01:04:54;5.37;;;1.93;;
79371;SDS011;68914;51.262;6.802;2023-04-24T01:05:55;5.18;;;2.00;;
79371;SDS011;68914;51.262;6.802;2023-04-24T01:06:56;4.60;;;1.80;;
79371;SDS011;68914;51.262;6.802;2023-04-24T01:07:57;5.50;;;1.90;;
79371;SDS011;68914;51.262;6.802;2023-04-24T01:08:59;5.35;;;2.10;;
79371;SDS011;68914;51.262;6.802;2023-04-24T01:10:04;5.55;;;1.90;;
79371;SDS011;68914;51.262;6.802;2023-04-24T01:11:05;5.70;;;2.20;;
79371;SDS011;68914;51.262;6.802;2023-04-24T01:12:06;5.47;;;2.00;;
79371;SDS011;68914;51.262;6.802;2023-04-24T01:13:07;6.03;;;2.10;;
79371;SDS011;68914;51.262;6.802;2023-04-24T01:14:08;5.93;;;2.10;;
79371;SDS011;68914;51.262;6.802;2023-04-24T01:15:09;6.18;;;1.95;;
79371;SDS011;68914;51.262;6.802;2023-04-24T01:16:10;6.75;;;2.00;;
79371;SDS011;68914;51.262;6.802;2023-04-24T01:17:11;5.67;;;2.27;;
79371;SDS011;68914;51.262;6.802;2023-04-24T01:18:12;7.90;;;1.98;;
79371;SDS011;68914;51.262;6.802;2023-04-24T01:19:12;6.55;;;2.25;;
79371;SDS011;68914;51.262;6.802;2023-04-24T01:20:16;5.60;;;2.13;;
79371;SDS011;68914;51.262;6.802;2023-04-24T01:21:17;5.70;;;2.33;;
79371;SDS011;68914;51.262;6.802;2023-04-24T01:22:18;6.05;;;2.63;;
79371;SDS011;68914;51.262;6.802;2023-04-24T01:23:20;6.40;;;2.58;;
79371;SDS011;68914;51.262;6.802;2023-04-24T01:24:21;8.65;;;2.88;;
79371;SDS011;68914;51.262;6.802;2023-04-24T01:25:22;6.83;;;2.90;;
79371;SDS011;68914;51.262;6.802;2023-04-24T01:26:24;7.45;;;3.03;;
79371;SDS011;68914;51.262;6.802;2023-04-24T01:27:26;7.20;;;3.20;;
79371;SDS011;68914;51.262;6.802;2023-04-24T01:28:27;8.13;;;3.10;;
79371;SDS011;68914;51.262;6.802;2023-04-24T01:29:28;6.70;;;2.90;;
79371;SDS011;68914;51.262;6.802;2023-04-24T01:30:29;6.93;;;3.00;;
79371;SDS011;68914;51.262;6.802;2023-04-24T01:31:31;7.75;;;3.22;;
79371;SDS011;68914;51.262;6.802;2023-04-24T01:32:33;7.28;;;3.20;;
79371;SDS011;68914;51.262;6.802;2023-04-24T01:33:34;7.88;;;3.22;;
79371;SDS011;68914;51.262;6.802;2023-04-24T01:34:35;8.40;;;3.47;;
79371;SDS011;68914;51.262;6.802;2023-04-24T01:35:37;7.90;;;3.53;;
79371;SDS011;68914;51.262;6.802;2023-04-24T01:36:38;9.90;;;3.78;;
79371;SDS011;68914;51.262;6.802;2023-04-24T01:37:39;10.75;;;4.70;;
79371;SDS011;68914;51.262;6.802;2023-04-24T01:38:40;10.82;;;4.40;;
79371;SDS011;68914;51.262;6.802;2023-04-24T01:39:40;8.97;;;4.10;;
79371;SDS011;68914;51.262;6.802;2023-04-24T01:40:41;9.70;;;4.15;;
79371;SDS011;68914;51.262;6.802;2023-04-24T01:41:42;10.73;;;5.00;;
79371;SDS011;68914;51.262;6.802;2023-04-24T01:42:42;11.15;;;5.32;;
79371;SDS011;68914;51.262;6.802;2023-04-24T01:43:43;10.27;;;4.57;;
79371;SDS011;68914;51.262;6.802;2023-04-24T01:44:44;9.85;;;4.90;;
79371;SDS011;68914;51.262;6.802;2023-04-24T01:45:45;12.55;;;5.45;;
79371;SDS011;68914;51.262;6.802;2023-04-24T01:46:46;12.57;;;5.63;;
79371;SDS011;68914;51.262;6.802;2023-04-24T01:47:46;11.15;;;5.45;;
79371;SDS011;68914;51.262;6.802;2023-04-24T01:48:49;12.20;;;5.97;;
79371;SDS011;68914;51.262;6.802;2023-04-24T01:49:53;11.85;;;5.10;;
79371;SDS011;68914;51.262;6.802;2023-04-24T01:50:54;10.40;;;5.10;;
79371;SDS011;68914;51.262;6.802;2023-04-24T01:51:55;10.40;;;5.03;;
79371;SDS011;68914;51.262;6.802;2023-04-24T01:52:56;12.33;;;4.93;;
79371;SDS011;68914;51.262;6.802;2023-04-24T01:53:56;11.93;;;5.70;;
79371;SDS011;68914;51.262;6.802;2023-04-24T01:54:59;11.00;;;5.00;;
79371;SDS011;68914;51.262;6.802;2023-04-24T01:56:00;11.55;;;5.78;;
79371;SDS011;68914;51.262;6.802;2023-04-24T01:57:01;14.48;;;5.68;;
79371;SDS011;68914;51.262;6.802;2023-04-24T01:58:02;13.55;;;5.57;;
79371;SDS011;68914;51.262;6.802;2023-04-24T01:59:03;11.07;;;4.82;;
79371;SDS011;68914;51.262;6.802;2023-04-24T02:00:04;11.27;;;5.13;;
79371;SDS011;68914;51.262;6.802;2023-04-24T02:01:15;12.20;;;5.45;;
79371;SDS011;68914;51.262;6.802;2023-04-24T02:02:19;12.57;;;5.40;;
79371;SDS011;68914;51.262;6.802;2023-04-24T02:03:21;10.93;;;5.50;;
79371;SDS011;68914;51.262;6.802;2023-04-24T02:04:23;12.18;;;5.60;;
79371;SDS011;68914;51.262;6.802;2023-04-24T02:05:23;11.63;;;5.55;;
79371;SDS011;68914;51.262;6.802;2023-04-24T02:06:24;11.00;;;5.40;;
79371;SDS011;68914;51.262;6.802;2023-04-24T02:07:26;12.38;;;5.43;;
79371;SDS011;68914;51.262;6.802;2023-04-24T02:08:27;12.77;;;6.22;;
79371;SDS011;68914;51.262;6.802;2023-04-24T02:09:28;13.57;;;5.30;;
79371;SDS011;68914;51.262;6.802;2023-04-24T02:10:28;13.88;;;5.93;;
79371;SDS011;68914;51.262;6.802;2023-04-24T02:11:29;13.03;;;5.93;;
79371;SDS011;68914;51.262;6.802;2023-04-24T02:12:31;14.15;;;6.00;;
79371;SDS011;68914;51.262;6.802;2023-04-24T02:13:32;13.93;;;6.40;;
79371;SDS011;68914;51.262;6.802;2023-04-24T02:14:33;12.90;;;5.95;;
79371;SDS011;68914;51.262;6.802;2023-04-24T02:15:33;13.93;;;6.13;;
79371;SDS011;68914;51.262;6.802;2023-04-24T02:16:37;14.77;;;6.70;;
79371;SDS011;68914;51.262;6.802;2023-04-24T02:17:39;13.68;;;6.28;;
79371;SDS011;68914;51.262;6.802;2023-04-24T02:18:39;14.68;;;6.18;;
79371;SDS011;68914;51.262;6.802;2023-04-24T02:19:40;16.00;;;6.37;;
79371;SDS011;68914;51.262;6.802;2023-04-24T02:20:41;13.65;;;5.95;;
79371;SDS011;68914;51.262;6.802;2023-04-24T02:21:41;13.83;;;6.37;;
79371;SDS011;68914;51.262;6.802;2023-04-24T02:22:42;14.13;;;6.43;;
79371;SDS011;68914;51.262;6.802;2023-04-24T02:23:43;14.43;;;6.13;;
79371;SDS011;68914;51.262;6.802;2023-04-24T02:24:46;14.93;;;6.53;;
79371;SDS011;68914;51.262;6.802;2023-04-24T02:25:49;15.13;;;6.40;;
79371;SDS011;68914;51.262;6.802;2023-04-24T02:26:51;15.60;;;6.50;;
79371;SDS011;68914;51.262;6.802;2023-04-24T02:27:52;14.45;;;6.78;;
79371;SDS011;68914;51.262;6.802;2023-04-24T02:28:52;12.20;;;5.80;;
79371;SDS011;68914;51.262;6.802;2023-04-24T02:29:54;13.45;;;6.15;;
79371;SDS011;68914;51.262;6.802;2023-04-24T02:30:55;14.38;;;6.55;;
79371;SDS011;68914;51.262;6.802;2023-04-24T02:31:56;14.38;;;6.30;;
79371;SDS011;68914;51.262;6.802;2023-04-24T02:32:57;12.77;;;6.77;;
79371;SDS011;68914;51.262;6.802;2023-04-24T02:33:57;12.68;;;6.53;;
79371;SDS011;68914;51.262;6.802;2023-04-24T02:34:58;16.07;;;6.97;;
79371;SDS011;68914;51.262;6.802;2023-04-24T02:35:59;16.77;;;7.18;;
79371;SDS011;68914;51.262;6.802;2023-04-24T02:37:00;14.93;;;7.10;;
79371;SDS011;68914;51.262;6.802;2023-04-24T02:38:00;14.40;;;6.85;;
79371;SDS011;68914;51.262;6.802;2023-04-24T02:39:01;14.37;;;6.83;;
79371;SDS011;68914;51.262;6.802;2023-04-24T02:40:02;13.38;;;6.50;;
79371;SDS011;68914;51.262;6.802;2023-04-24T02:41:03;16.30;;;7.30;;
79371;SDS011;68914;51.262;6.802;2023-04-24T02:42:06;13.55;;;6.47;;
79371;SDS011;68914;51.262;6.802;2023-04-24T02:43:09;14.25;;;7.15;;
79371;SDS011;68914;51.262;6.802;2023-04-24T02:44:10;14.40;;;6.78;;
79371;SDS011;68914;51.262;6.802;2023-04-24T02:45:10;14.93;;;6.67;;
79371;SDS011;68914;51.262;6.802;2023-04-24T02:46:11;14.15;;;6.82;;
79371;SDS011;68914;51.262;6.802;2023-04-24T02:47:11;13.43;;;6.72;;
79371;SDS011;68914;51.262;6.802;2023-04-24T02:48:12;15.47;;;7.20;;
79371;SDS011;68914;51.262;6.802;2023-04-24T02:49:13;14.73;;;6.68;;
79371;SDS011;68914;51.262;6.802;2023-04-24T02:50:13;14.63;;;6.97;;
79371;SDS011;68914;51.262;6.802;2023-04-24T02:51:14;13.23;;;6.65;;
79371;SDS011;68914;51.262;6.802;2023-04-24T02:52:15;15.43;;;6.90;;
79371;SDS011;68914;51.262;6.802;2023-04-24T02:53:15;16.13;;;7.28;;
79371;SDS011;68914;51.262;6.802;2023-04-24T02:54:16;16.57;;;6.80;;
79371;SDS011;68914;51.262;6.802;2023-04-24T02:55:17;13.93;;;6.90;;
79371;SDS011;68914;51.262;6.802;2023-04-24T02:56:18;14.48;;;6.63;;
79371;SDS011;68914;51.262;6.802;2023-04-24T02:57:18;16.40;;;7.23;;
79371;SDS011;68914;51.262;6.802;2023-04-24T02:58:19;13.90;;;6.70;;
79371;SDS011;68914;51.262;6.802;2023-04-24T02:59:20;15.45;;;7.30;;
79371;SDS011;68914;51.262;6.802;2023-04-24T03:00:21;16.97;;;7.23;;
79371;SDS011;68914;51.262;6.802;2023-04-24T03:01:22;16.10;;;6.85;;
79371;SDS011;68914;51.262;6.802;2023-04-24T03:02:22;15.60;;;7.00;;
79371;SDS011;68914;51.262;6.802;2023-04-24T03:03:23;16.90;;;6.97;;
79371;SDS011;68914;51.262;6.802;2023-04-24T03:04:24;14.75;;;7.10;;
79371;SDS011;68914;51.262;6.802;2023-04-24T03:05:24;13.57;;;6.93;;
79371;SDS011;68914;51.262;6.802;2023-04-24T03:06:25;13.25;;;6.88;;
79371;SDS011;68914;51.262;6.802;2023-04-24T03:07:27;14.60;;;6.90;;
79371;SDS011;68914;51.262;6.802;2023-04-24T03:08:27;16.23;;;6.97;;
79371;SDS011;68914;51.262;6.802;2023-04-24T03:09:28;14.48;;;6.82;;
79371;SDS011;68914;51.262;6.802;2023-04-24T03:10:28;13.53;;;6.87;;
79371;SDS011;68914;51.262;6.802;2023-04-24T03:11:29;15.27;;;7.03;;
79371;SDS011;68914;51.262;6.802;2023-04-24T03:12:30;17.40;;;7.00;;
79371;SDS011;68914;51.262;6.802;2023-04-24T03:13:30;16.57;;;7.43;;
79371;SDS011;68914;51.262;6.802;2023-04-24T03:14:31;13.97;;;6.17;;
79371;SDS011;68914;51.262;6.802;2023-04-24T03:15:32;14.90;;;7.17;;
79371;SDS011;68914;51.262;6.802;2023-04-24T03:16:32;15.73;;;6.72;;
79371;SDS011;68914;51.262;6.802;2023-04-24T03:17:33;14.30;;;6.57;;
79371;SDS011;68914;51.262;6.802;2023-04-24T03:18:33;15.48;;;7.18;;
79371;SDS011;68914;51.262;6.802;2023-04-24T03:19:34;15.57;;;7.50;;
79371;SDS011;68914;51.262;6.802;2023-04-24T03:20:40;18.60;;;7.50;;
79371;SDS011;68914;51.262;6.802;2023-04-24T03:21:41;14.75;;;7.03;;
79371;SDS011;68914;51.262;6.802;2023-04-24T03:22:42;15.93;;;7.13;;
79371;SDS011;68914;51.262;6.802;2023-04-24T03:23:43;16.83;;;7.73;;
79371;SDS011;68914;51.262;6.802;2023-04-24T03:24:44;17.63;;;7.53;;
79371;SDS011;68914;51.262;6.802;2023-04-24T03:25:45;14.30;;;6.70;;
79371;SDS011;68914;51.262;6.802;2023-04-24T03:26:50;13.80;;;6.03;;
79371;SDS011;68914;51.262;6.802;2023-04-24T03:28:16;14.68;;;7.10;;
79371;SDS011;68914;51.262;6.802;2023-04-24T03:29:22;18.38;;;7.13;;
79371;SDS011;68914;51.262;6.802;2023-04-24T03:30:23;15.03;;;6.37;;
79371;SDS011;68914;51.262;6.802;2023-04-24T03:31:29;13.48;;;7.05;;
79371;SDS011;68914;51.262;6.802;2023-04-24T03:32:30;15.25;;;7.05;;
79371;SDS011;68914;51.262;6.802;2023-04-24T03:33:32;14.25;;;6.82;;
79371;SDS011;68914;51.262;6.802;2023-04-24T03:34:35;16.50;;;7.20;;
79371;SDS011;68914;51.262;6.802;2023-04-24T03:35:35;13.37;;;6.53;;
79371;SDS011;68914;51.262;6.802;2023-04-24T03:36:40;15.18;;;6.20;;
79371;SDS011;68914;51.262;6.802;2023-04-24T03:37:42;15.00;;;7.15;;
79371;SDS011;68914;51.262;6.802;2023-04-24T03:39:08;14.30;;;6.93;;
79371;SDS011;68914;51.262;6.802;2023-04-24T03:40:11;14.23;;;6.50;;
79371;SDS011;68914;51.262;6.802;2023-04-24T03:41:12;18.63;;;7.47;;
79371;SDS011;68914;51.262;6.802;2023-04-24T03:42:29;13.25;;;6.80;;
79371;SDS011;68914;51.262;6.802;2023-04-24T03:43:30;14.33;;;6.77;;
79371;SDS011;68914;51.262;6.802;2023-04-24T03:44:34;15.25;;;6.78;;
79371;SDS011;68914;51.262;6.802;2023-04-24T03:45:35;13.38;;;6.63;;
79371;SDS011;68914;51.262;6.802;2023-04-24T03:46:36;13.82;;;6.82;;
79371;SDS011;68914;51.262;6.802;2023-04-24T03:47:36;14.60;;;6.37;;
79371;SDS011;68914;51.262;6.802;2023-04-24T03:48:39;15.07;;;6.95;;
79371;SDS011;68914;51.262;6.802;2023-04-24T03:49:41;16.23;;;7.03;;
79371;SDS011;68914;51.262;6.802;2023-04-24T03:50:43;14.10;;;6.70;;
79371;SDS011;68914;51.262;6.802;2023-04-24T03:51:45;14.57;;;6.85;;
79371;SDS011;68914;51.262;6.802;2023-04-24T03:52:56;14.45;;;7.20;;
79371;SDS011;68914;51.262;6.802;2023-04-24T03:54:07;14.95;;;6.75;;
79371;SDS011;68914;51.262;6.802;2023-04-24T03:55:11;13.68;;;6.75;;
79371;SDS011;68914;51.262;6.802;2023-04-24T03:56:17;14.43;;;6.97;;
79371;SDS011;68914;51.262;6.802;2023-04-24T03:57:18;13.75;;;6.82;;
79371;SDS011;68914;51.262;6.802;2023-04-24T03:58:31;17.40;;;6.78;;
79371;SDS011;68914;51.262;6.802;2023-04-24T03:59:34;15.30;;;6.50;;
79371;SDS011;68914;51.262;6.802;2023-04-24T04:00:46;15.05;;;6.72;;
79371;SDS011;68914;51.262;6.802;2023-04-24T04:02:13;15.82;;;7.00;;
79371;SDS011;68914;51.262;6.802;2023-04-24T04:03:14;15.07;;;6.60;;
79371;SDS011;68914;51.262;6.802;2023-04-24T04:04:15;13.80;;;6.50;;
79371;SDS011;68914;51.262;6.802;2023-04-24T04:05:17;13.75;;;6.85;;
79371;SDS011;68914;51.262;6.802;2023-04-24T04:06:17;15.73;;;7.07;;
79371;SDS011;68914;51.262;6.802;2023-04-24T04:07:19;15.00;;;6.97;;
79371;SDS011;68914;51.262;6.802;2023-04-24T04:08:20;14.05;;;7.03;;
79371;SDS011;68914;51.262;6.802;2023-04-24T04:09:22;15.27;;;7.22;;
79371;SDS011;68914;51.262;6.802;2023-04-24T04:10:22;16.27;;;7.27;;
79371;SDS011;68914;51.262;6.802;2023-04-24T04:11:23;14.40;;;7.23;;
79371;SDS011;68914;51.262;6.802;2023-04-24T04:12:24;14.18;;;7.07;;
79371;SDS011;68914;51.262;6.802;2023-04-24T04:13:25;15.85;;;7.72;;
79371;SDS011;68914;51.262;6.802;2023-04-24T04:14:26;18.43;;;8.70;;
79371;SDS011;68914;51.262;6.802;2023-04-24T04:15:27;16.45;;;7.63;;
79371;SDS011;68914;51.262;6.802;2023-04-24T04:16:28;16.07;;;7.47;;
79371;SDS011;68914;51.262;6.802;2023-04-24T04:17:35;15.23;;;6.87;;
79371;SDS011;68914;51.262;6.802;2023-04-24T04:18:37;14.55;;;6.80;;
79371;SDS011;68914;51.262;6.802;2023-04-24T04:19:39;14.48;;;7.07;;
79371;SDS011;68914;51.262;6.802;2023-04-24T04:20:41;15.40;;;6.80;;
79371;SDS011;68914;51.262;6.802;2023-04-24T04:21:43;16.58;;;7.07;;
79371;SDS011;68914;51.262;6.802;2023-04-24T04:22:57;15.20;;;6.70;;
79371;SDS011;68914;51.262;6.802;2023-04-24T04:24:11;13.50;;;7.00;;
79371;SDS011;68914;51.262;6.802;2023-04-24T04:25:16;15.23;;;7.05;;
79371;SDS011;68914;51.262;6.802;2023-04-24T04:26:19;15.27;;;6.75;;
79371;SDS011;68914;51.262;6.802;2023-04-24T04:27:32;14.68;;;6.63;;
79371;SDS011;68914;51.262;6.802;2023-04-24T04:28:37;13.53;;;6.47;;
79371;SDS011;68914;51.262;6.802;2023-04-24T04:29:39;16.42;;;7.35;;
79371;SDS011;68914;51.262;6.802;2023-04-24T04:30:42;14.05;;;7.10;;
79371;SDS011;68914;51.262;6.802;2023-04-24T04:31:43;13.90;;;6.75;;
79371;SDS011;68914;51.262;6.802;2023-04-24T04:32:46;13.18;;;6.20;;
79371;SDS011;68914;51.262;6.802;2023-04-24T04:33:47;13.88;;;6.82;;
79371;SDS011;68914;51.262;6.802;2023-04-24T04:34:48;13.43;;;6.70;;
79371;SDS011;68914;51.262;6.802;2023-04-24T04:35:50;16.25;;;7.03;;
79371;SDS011;68914;51.262;6.802;2023-04-24T04:36:57;13.55;;;6.82;;
79371;SDS011;68914;51.262;6.802;2023-04-24T04:38:16;17.33;;;6.68;;
79371;SDS011;68914;51.262;6.802;2023-04-24T04:39:33;15.15;;;6.60;;
79371;SDS011;68914;51.262;6.802;2023-04-24T04:40:36;14.20;;;6.68;;
79371;SDS011;68914;51.262;6.802;2023-04-24T04:41:39;13.82;;;6.53;;
79371;SDS011;68914;51.262;6.802;2023-04-24T04:42:41;12.40;;;6.37;;
79371;SDS011;68914;51.262;6.802;2023-04-24T04:43:42;14.48;;;6.00;;
79371;SDS011;68914;51.262;6.802;2023-04-24T04:44:44;14.32;;;6.68;;
79371;SDS011;68914;51.262;6.802;2023-04-24T04:45:49;12.80;;;6.75;;
79371;SDS011;68914;51.262;6.802;2023-04-24T04:47:00;14.25;;;6.55;;
79371;SDS011;68914;51.262;6.802;2023-04-24T04:48:07;13.18;;;6.38;;
79371;SDS011;68914;51.262;6.802;2023-04-24T04:49:10;13.02;;;6.75;;
79371;SDS011;68914;51.262;6.802;2023-04-24T04:50:11;11.77;;;5.97;;
79371;SDS011;68914;51.262;6.802;2023-04-24T04:51:12;16.00;;;6.33;;
79371;SDS011;68914;51.262;6.802;2023-04-24T04:52:13;15.35;;;6.88;;
79371;SDS011;68914;51.262;6.802;2023-04-24T04:53:14;12.05;;;6.28;;
79371;SDS011;68914;51.262;6.802;2023-04-24T04:54:16;12.52;;;6.28;;
79371;SDS011;68914;51.262;6.802;2023-04-24T04:55:16;14.68;;;6.40;;
79371;SDS011;68914;51.262;6.802;2023-04-24T04:56:40;13.07;;;6.60;;
79371;SDS011;68914;51.262;6.802;2023-04-24T04:57:41;12.57;;;6.30;;
79371;SDS011;68914;51.262;6.802;2023-04-24T04:58:41;14.70;;;7.13;;
79371;SDS011;68914;51.262;6.802;2023-04-24T04:59:45;14.87;;;7.17;;
79371;SDS011;68914;51.262;6.802;2023-04-24T05:00:53;19.10;;;7.00;;
79371;SDS011;68914;51.262;6.802;2023-04-24T05:02:08;13.52;;;6.80;;
79371;SDS011;68914;51.262;6.802;2023-04-24T05:03:10;13.50;;;7.00;;
79371;SDS011;68914;51.262;6.802;2023-04-24T05:04:11;17.42;;;6.88;;
79371;SDS011;68914;51.262;6.802;2023-04-24T05:05:12;14.75;;;7.53;;
79371;SDS011;68914;51.262;6.802;2023-04-24T05:06:13;14.95;;;7.18;;
79371;SDS011;68914;51.262;6.802;2023-04-24T05:07:14;15.03;;;7.70;;
79371;SDS011;68914;51.262;6.802;2023-04-24T05:08:20;14.73;;;7.28;;
79371;SDS011;68914;51.262;6.802;2023-04-24T05:09:20;15.40;;;7.45;;
79371;SDS011;68914;51.262;6.802;2023-04-24T05:10:28;17.73;;;7.28;;
79371;SDS011;68914;51.262;6.802;2023-04-24T05:11:29;14.45;;;7.32;;
79371;SDS011;68914;51.262;6.802;2023-04-24T05:12:31;14.48;;;7.30;;
79371;SDS011;68914;51.262;6.802;2023-04-24T05:13:32;15.13;;;7.17;;
79371;SDS011;68914;51.262;6.802;2023-04-24T05:14:34;15.55;;;7.10;;
79371;SDS011;68914;51.262;6.802;2023-04-24T05:15:35;14.68;;;6.72;;
79371;SDS011;68914;51.262;6.802;2023-04-24T05:16:36;14.35;;;7.00;;
79371;SDS011;68914;51.262;6.802;2023-04-24T05:17:38;15.30;;;7.20;;
79371;SDS011;68914;51.262;6.802;2023-04-24T05:18:41;13.95;;;7.00;;
79371;SDS011;68914;51.262;6.802;2023-04-24T05:19:44;15.95;;;7.40;;
79371;SDS011;68914;51.262;6.802;2023-04-24T05:20:47;15.10;;;7.00;;
79371;SDS011;68914;51.262;6.802;2023-04-24T05:21:48;15.88;;;7.43;;
79371;SDS011;68914;51.262;6.802;2023-04-24T05:22:49;15.30;;;6.82;;
79371;SDS011;68914;51.262;6.802;2023-04-24T05:23:50;14.13;;;6.72;;
79371;SDS011;68914;51.262;6.802;2023-04-24T05:24:59;14.98;;;7.00;;
79371;SDS011;68914;51.262;6.802;2023-04-24T05:26:16;15.23;;;6.63;;
79371;SDS011;68914;51.262;6.802;2023-04-24T05:27:18;13.48;;;6.80;;
79371;SDS011;68914;51.262;6.802;2023-04-24T05:28:18;12.20;;;5.95;;
79371;SDS011;68914;51.262;6.802;2023-04-24T05:29:27;15.43;;;6.13;;
79371;SDS011;68914;51.262;6.802;2023-04-24T05:30:28;13.73;;;6.38;;
79371;SDS011;68914;51.262;6.802;2023-04-24T05:31:29;15.60;;;6.27;;
79371;SDS011;68914;51.262;6.802;2023-04-24T05:32:29;12.50;;;5.97;;
79371;SDS011;68914;51.262;6.802;2023-04-24T05:33:30;16.88;;;6.47;;
79371;SDS011;68914;51.262;6.802;2023-04-24T05:34:31;13.85;;;6.68;;
79371;SDS011;68914;51.262;6.802;2023-04-24T05:35:32;13.93;;;6.72;;
79371;SDS011;68914;51.262;6.802;2023-04-24T05:36:33;14.77;;;6.57;;
79371;SDS011;68914;51.262;6.802;2023-04-24T05:37:33;14.00;;;6.53;;
79371;SDS011;68914;51.262;6.802;2023-04-24T05:38:34;13.80;;;6.53;;
79371;SDS011;68914;51.262;6.802;2023-04-24T05:39:36;12.10;;;6.07;;
79371;SDS011;68914;51.262;6.802;2023-04-24T05:40:36;14.13;;;6.70;;
79371;SDS011;68914;51.262;6.802;2023-04-24T05:41:37;12.10;;;6.10;;
79371;SDS011;68914;51.262;6.802;2023-04-24T05:42:38;13.35;;;6.43;;
79371;SDS011;68914;51.262;6.802;2023-04-24T05:43:38;14.00;;;6.50;;
79371;SDS011;68914;51.262;6.802;2023-04-24T05:44:39;14.10;;;6.78;;
79371;SDS011;68914;51.262;6.802;2023-04-24T05:45:39;15.03;;;6.70;;
79371;SDS011;68914;51.262;6.802;2023-04-24T05:46:40;12.57;;;6.35;;
79371;SDS011;68914;51.262;6.802;2023-04-24T05:47:41;14.00;;;6.47;;
79371;SDS011;68914;51.262;6.802;2023-04-24T05:48:41;12.90;;;6.05;;
79371;SDS011;68914;51.262;6.802;2023-04-24T05:49:42;13.20;;;6.03;;
79371;SDS011;68914;51.262;6.802;2023-04-24T05:50:42;13.85;;;6.55;;
79371;SDS011;68914;51.262;6.802;2023-04-24T05:51:43;11.93;;;5.65;;
79371;SDS011;68914;51.262;6.802;2023-04-24T05:52:44;12.53;;;6.23;;
79371;SDS011;68914;51.262;6.802;2023-04-24T05:53:56;12.77;;;5.93;;
79371;SDS011;68914;51.262;6.802;2023-04-24T05:54:58;13.05;;;6.43;;
79371;SDS011;68914;51.262;6.802;2023-04-24T05:56:04;11.63;;;5.40;;
79371;SDS011;68914;51.262;6.802;2023-04-24T05:57:05;11.88;;;6.30;;
79371;SDS011;68914;51.262;6.802;2023-04-24T05:58:26;11.50;;;5.45;;
79371;SDS011;68914;51.262;6.802;2023-04-24T05:59:27;11.02;;;5.45;;
79371;SDS011;68914;51.262;6.802;2023-04-24T06:00:28;11.43;;;5.53;;
79371;SDS011;68914;51.262;6.802;2023-04-24T06:01:36;10.98;;;5.75;;
79371;SDS011;68914;51.262;6.802;2023-04-24T06:02:43;12.95;;;6.20;;
79371;SDS011;68914;51.262;6.802;2023-04-24T06:03:46;12.90;;;5.90;;
79371;SDS011;68914;51.262;6.802;2023-04-24T06:04:47;11.15;;;5.95;;
79371;SDS011;68914;51.262;6.802;2023-04-24T06:05:49;13.87;;;6.00;;
79371;SDS011;68914;51.262;6.802;2023-04-24T06:06:50;13.40;;;6.05;;
79371;SDS011;68914;51.262;6.802;2023-04-24T06:07:56;13.98;;;6.10;;
79371;SDS011;68914;51.262;6.802;2023-04-24T06:09:01;12.85;;;5.97;;
79371;SDS011;68914;51.262;6.802;2023-04-24T06:10:02;11.75;;;5.30;;
79371;SDS011;68914;51.262;6.802;2023-04-24T06:11:08;11.73;;;5.50;;
79371;SDS011;68914;51.262;6.802;2023-04-24T06:12:09;11.98;;;5.75;;